Time;durP1;ratioP1;P1;durP2;ratioP2;P2;SDS_P1;SDS_P2;PMS_P1;PMS_P2;Temp;Humidity;BMP_temperature;BMP_pressure;BME280_temperature;BME280_humidity;BME280_pressure;Samples;Min_cycle;Max_cycle;Signal;HPM_P1;HPM_P2
2022/06/28 00:00:16;;;;;;;20.42;18.48;;;14.20;99.90;;;;;;5009870;28;20061;-90
2022/06/28 00:02:42;;;;;;;19.90;17.90;;;14.10;99.90;;;;;;5015934;28;20046;-90
2022/06/28 00:05:09;;;;;;;20.05;18.15;;;14.10;99.90;;;;;;5011526;28;20050;-91
2022/06/28 00:07:34;;;;;;;20.05;17.95;;;14.10;99.90;;;;;;5006903;28;20072;-91
2022/06/28 00:10:00;;;;;;;19.40;17.48;;;14.10;99.90;;;;;;5006157;28;20038;-91
2022/06/28 00:12:26;;;;;;;19.10;17.20;;;14.00;99.90;;;;;;5009363;28;20042;-91
2022/06/28 00:17:36;;;;;;;19.25;17.25;;;14.00;99.90;;;;;;5011608;28;20516;-91
2022/06/28 00:20:04;;;;;;;20.65;17.65;;;13.90;99.90;;;;;;5011450;28;20053;-89
2022/06/28 00:22:29;;;;;;;19.00;17.02;;;13.90;99.90;;;;;;5017020;28;20045;-91
2022/06/28 00:24:55;;;;;;;20.10;18.00;;;13.90;99.90;;;;;;5009185;28;20056;-91
2022/06/28 00:27:20;;;;;;;19.90;17.77;;;13.90;99.90;;;;;;5008343;28;20113;-91
2022/06/28 00:29:46;;;;;;;21.52;19.33;;;13.90;99.90;;;;;;5015333;28;20046;-91
2022/06/28 00:32:12;;;;;;;20.80;18.70;;;13.90;99.90;;;;;;5013887;28;20112;-92
2022/06/28 00:34:37;;;;;;;20.95;18.83;;;13.90;99.90;;;;;;5010976;28;20088;-91
2022/06/28 00:37:03;;;;;;;22.15;19.20;;;13.80;99.90;;;;;;5013393;28;20059;-90
2022/06/28 00:39:29;;;;;;;21.98;19.10;;;13.80;99.90;;;;;;5008017;28;20065;-91
2022/06/28 00:41:54;;;;;;;21.30;19.27;;;13.80;99.90;;;;;;5011977;28;20054;-90
2022/06/28 00:44:21;;;;;;;22.08;18.90;;;13.80;99.90;;;;;;5016851;28;20037;-91
2022/06/28 00:46:48;;;;;;;21.05;18.95;;;13.80;99.90;;;;;;5012087;28;20069;-91
2022/06/28 00:49:14;;;;;;;20.38;18.38;;;13.80;99.90;;;;;;4989640;28;20088;-91
2022/06/28 00:51:39;;;;;;;22.45;19.50;;;13.80;99.90;;;;;;5014734;28;20042;-90
2022/06/28 00:54:06;;;;;;;22.42;20.13;;;13.80;99.90;;;;;;5016396;28;20045;-90
2022/06/28 00:56:31;;;;;;;22.20;19.85;;;13.80;99.90;;;;;;5011994;28;20037;-91
2022/06/28 00:58:57;;;;;;;21.92;19.63;;;13.70;99.90;;;;;;5015266;28;20132;-92
2022/06/28 01:01:24;;;;;;;23.50;20.55;;;13.70;99.90;;;;;;5016419;28;20473;-91
2022/06/28 01:03:50;;;;;;;21.80;19.48;;;13.70;99.90;;;;;;5016707;28;20096;-91
2022/06/28 01:06:16;;;;;;;23.15;20.80;;;13.70;99.90;;;;;;5012491;28;20038;-91
2022/06/28 01:08:45;;;;;;;23.33;20.80;;;13.70;99.90;;;;;;5011109;28;20060;-91
2022/06/28 01:11:21;;;;;;;22.60;20.30;;;13.70;99.90;;;;;;5012677;28;20046;-91
2022/06/28 01:13:48;;;;;;;23.05;20.75;;;13.60;99.90;;;;;;5015349;28;20050;-91
2022/06/28 01:16:14;;;;;;;22.40;20.17;;;13.60;99.90;;;;;;5016448;28;20057;-91
2022/06/28 01:18:40;;;;;;;22.88;19.98;;;13.60;99.90;;;;;;5007930;28;20092;-91
2022/06/28 01:21:05;;;;;;;22.13;19.90;;;13.60;99.90;;;;;;5014826;28;20143;-90
2022/06/28 01:23:32;;;;;;;22.05;19.92;;;13.60;99.90;;;;;;5015807;28;20470;-92
2022/06/28 01:25:58;;;;;;;22.98;20.67;;;13.60;99.90;;;;;;5020244;28;20430;-90
2022/06/28 01:28:24;;;;;;;21.55;19.33;;;13.60;99.90;;;;;;5012324;28;20057;-91
2022/06/28 01:30:50;;;;;;;22.63;20.23;;;13.50;99.90;;;;;;5008453;28;20038;-90
2022/06/28 01:33:16;;;;;;;22.60;20.20;;;13.50;99.90;;;;;;5017586;28;20041;-91
2022/06/28 01:35:41;;;;;;;22.33;20.13;;;13.50;99.90;;;;;;5009711;28;20050;-90
2022/06/28 01:38:10;;;;;;;22.60;20.13;;;13.50;99.90;;;;;;5006795;28;20041;-91
2022/06/28 01:40:35;;;;;;;23.77;20.20;;;13.50;99.90;;;;;;4996664;28;20081;-91
2022/06/28 01:43:01;;;;;;;22.60;19.92;;;13.50;99.90;;;;;;5017117;28;20910;-90
2022/06/28 01:45:29;;;;;;;22.00;19.70;;;13.50;99.90;;;;;;5018143;28;20049;-91
2022/06/28 01:47:55;;;;;;;21.98;19.73;;;13.50;99.90;;;;;;5014061;28;20050;-91
2022/06/28 01:50:21;;;;;;;21.70;19.48;;;13.50;99.90;;;;;;5018874;28;20045;-91
2022/06/28 01:52:46;;;;;;;21.60;19.45;;;13.40;99.90;;;;;;4995838;28;20045;-90
2022/06/28 01:55:12;;;;;;;22.55;20.27;;;13.40;99.90;;;;;;5020121;28;20084;-90
2022/06/28 01:57:39;;;;;;;22.63;20.05;;;13.40;99.90;;;;;;4997316;28;20045;-91
2022/06/28 02:00:06;;;;;;;22.98;20.35;;;13.30;99.90;;;;;;5021398;28;20406;-91
2022/06/28 02:02:32;;;;;;;21.08;18.95;;;13.30;99.90;;;;;;5011829;28;20398;-91
2022/06/28 02:04:57;;;;;;;21.77;19.42;;;13.30;99.90;;;;;;4987284;28;20038;-90
2022/06/28 02:07:23;;;;;;;21.83;19.45;;;13.30;99.90;;;;;;5018294;28;20041;-91
2022/06/28 02:09:49;;;;;;;22.13;19.73;;;13.30;99.90;;;;;;5019114;28;20957;-90
2022/06/28 02:12:14;;;;;;;22.52;20.00;;;13.30;99.90;;;;;;5023327;28;20068;-91
2022/06/28 02:14:40;;;;;;;22.98;20.05;;;13.30;99.90;;;;;;4991325;28;20042;-89
2022/06/28 02:17:05;;;;;;;21.85;19.48;;;13.30;99.90;;;;;;5019306;28;20037;-90
2022/06/28 02:19:31;;;;;;;22.08;19.83;;;13.30;99.90;;;;;;5008701;28;20106;-90
2022/06/28 02:21:57;;;;;;;23.30;19.80;;;13.20;99.90;;;;;;4994219;28;20046;-90
2022/06/28 02:24:22;;;;;;;21.50;19.30;;;13.20;99.90;;;;;;4994786;28;20045;-90
2022/06/28 02:26:48;;;;;;;22.77;20.40;;;13.20;99.90;;;;;;4978443;28;20120;-89
2022/06/28 02:29:13;;;;;;;21.45;19.23;;;13.20;99.90;;;;;;4998792;28;20038;-90
2022/06/28 02:31:39;;;;;;;21.60;19.30;;;13.10;99.90;;;;;;4995884;28;20104;-90
2022/06/28 02:34:05;;;;;;;21.90;19.48;;;13.20;99.90;;;;;;5009227;28;20413;-90
2022/06/28 02:41:41;;;;;;;22.15;19.85;;;13.10;99.90;;;;;;5024136;28;20046;-91
2022/06/28 02:44:07;;;;;;;22.58;20.17;;;13.10;99.90;;;;;;5013988;28;20104;-90
2022/06/28 02:46:32;;;;;;;20.88;18.67;;;13.10;99.90;;;;;;5010392;28;20580;-90
2022/06/28 02:48:58;;;;;;;21.50;19.20;;;13.10;99.90;;;;;;5011703;28;20058;-90
2022/06/28 02:51:24;;;;;;;21.52;19.23;;;13.10;99.90;;;;;;5009582;28;20406;-91
2022/06/28 02:53:52;;;;;;;21.25;19.00;;;13.10;99.90;;;;;;5012241;28;20053;-91
2022/06/28 02:56:18;;;;;;;21.33;19.23;;;13.00;99.90;;;;;;5016330;28;20520;-91
2022/06/28 02:58:44;;;;;;;25.00;21.17;;;13.00;99.90;;;;;;5013188;28;20057;-91
2022/06/28 03:01:10;;;;;;;22.35;19.73;;;13.00;99.90;;;;;;4994372;28;20041;-91
2022/06/28 03:03:36;;;;;;;21.10;18.92;;;13.00;99.90;;;;;;5012497;28;20046;-90
2022/06/28 03:06:02;;;;;;;21.80;19.52;;;13.00;99.90;;;;;;5009324;28;20459;-91
2022/06/28 03:08:27;;;;;;;22.27;19.90;;;13.00;99.90;;;;;;5006672;28;20034;-91
2022/06/28 03:10:53;;;;;;;21.40;19.17;;;13.00;99.90;;;;;;5013061;28;20073;-91
2022/06/28 03:13:18;;;;;;;21.77;19.48;;;13.00;99.90;;;;;;5007422;28;20034;-92
2022/06/28 03:15:44;;;;;;;19.75;17.80;;;12.90;99.90;;;;;;5014997;28;20072;-90
2022/06/28 03:18:10;;;;;;;20.42;18.42;;;12.90;99.90;;;;;;5016200;28;20049;-91
2022/06/28 03:20:35;;;;;;;21.13;18.40;;;12.90;99.90;;;;;;5014646;28;20194;-91
2022/06/28 03:23:01;;;;;;;21.55;19.40;;;12.90;99.90;;;;;;5015347;28;20068;-91
2022/06/28 03:25:26;;;;;;;20.58;18.45;;;12.90;99.90;;;;;;5019044;28;20094;-92
2022/06/28 03:27:52;;;;;;;19.30;17.38;;;12.90;99.90;;;;;;5014210;28;20065;-90
2022/06/28 03:30:18;;;;;;;20.17;18.17;;;12.80;99.90;;;;;;5021885;28;20044;-91
2022/06/28 03:32:44;;;;;;;21.40;19.10;;;12.80;99.90;;;;;;5015827;28;20500;-90
2022/06/28 03:35:10;;;;;;;20.80;18.55;;;12.80;99.90;;;;;;4993054;28;20533;-91
2022/06/28 03:37:37;;;;;;;24.17;20.45;;;12.80;99.90;;;;;;4996143;28;20525;-91
2022/06/28 03:40:03;;;;;;;21.98;19.67;;;12.80;99.90;;;;;;4981322;28;20041;-90
2022/06/28 03:42:29;;;;;;;20.95;18.75;;;12.80;99.90;;;;;;5002116;28;20045;-92
2022/06/28 03:44:55;;;;;;;22.17;19.85;;;12.80;99.90;;;;;;5011651;28;20219;-90
2022/06/28 03:47:20;;;;;;;21.52;19.33;;;12.80;99.90;;;;;;5010187;28;20045;-92
2022/06/28 03:49:47;;;;;;;21.90;19.63;;;12.80;99.90;;;;;;4985167;28;20049;-91
2022/06/28 03:52:14;;;;;;;21.65;19.35;;;12.80;99.90;;;;;;5008643;28;20046;-91
2022/06/28 03:54:39;;;;;;;23.83;20.33;;;12.80;99.90;;;;;;5013815;28;21010;-92
2022/06/28 03:57:05;;;;;;;22.08;19.75;;;12.90;99.90;;;;;;5013644;28;20077;-91
2022/06/28 03:59:31;;;;;;;22.42;19.65;;;12.90;99.90;;;;;;4997759;28;20045;-90
2022/06/28 04:01:57;;;;;;;22.83;20.35;;;13.00;99.90;;;;;;5018918;28;20041;-91
2022/06/28 04:04:22;;;;;;;21.73;19.23;;;13.00;99.90;;;;;;5011697;28;20534;-91
2022/06/28 04:06:48;;;;;;;21.95;19.58;;;13.00;99.90;;;;;;5000952;28;20136;-91
2022/06/28 04:09:13;;;;;;;21.25;19.08;;;13.00;99.90;;;;;;5016255;28;20375;-91
2022/06/28 04:11:39;;;;;;;21.98;19.15;;;13.00;99.90;;;;;;4994271;28;20133;-91
2022/06/28 04:14:04;;;;;;;21.48;19.27;;;13.10;99.90;;;;;;5001805;28;20132;-92
2022/06/28 04:16:32;;;;;;;21.38;19.17;;;13.10;99.90;;;;;;5018584;28;20113;-91
2022/06/28 04:18:57;;;;;;;21.67;19.42;;;13.10;99.90;;;;;;4992407;28;20097;-92
2022/06/28 04:21:23;;;;;;;22.42;20.00;;;13.20;99.90;;;;;;5016364;28;20037;-92
2022/06/28 04:23:49;;;;;;;22.70;19.33;;;13.20;99.90;;;;;;5001657;28;20124;-92
2022/06/28 04:26:14;;;;;;;21.02;18.83;;;13.30;99.90;;;;;;5001208;28;20041;-94
2022/06/28 04:28:40;;;;;;;21.48;19.35;;;13.30;99.90;;;;;;5017396;28;20073;-93
2022/06/28 04:31:06;;;;;;;21.63;19.42;;;13.30;99.90;;;;;;5026803;28;20041;-94
2022/06/28 04:33:33;;;;;;;22.05;18.52;;;13.40;99.90;;;;;;5007949;28;20089;-92
2022/06/28 04:35:58;;;;;;;21.48;19.27;;;13.40;99.90;;;;;;5013005;28;20138;-93
2022/06/28 04:38:24;;;;;;;22.33;19.92;;;13.40;99.90;;;;;;5014231;28;20112;-93
2022/06/28 04:40:50;;;;;;;20.42;18.30;;;13.50;99.90;;;;;;5017939;28;20050;-93
2022/06/28 04:43:15;;;;;;;20.95;18.77;;;13.50;99.90;;;;;;5018323;28;20034;-92
2022/06/28 04:45:42;;;;;;;22.77;19.40;;;13.50;99.90;;;;;;5028142;28;20049;-92
2022/06/28 04:48:07;;;;;;;20.58;18.48;;;13.50;99.90;;;;;;5022062;28;20044;-92
2022/06/28 04:50:33;;;;;;;21.20;19.00;;;13.60;99.90;;;;;;5001577;28;20147;-92
2022/06/28 04:52:59;;;;;;;21.45;19.27;;;13.60;99.90;;;;;;5003608;28;20077;-90
2022/06/28 04:55:25;;;;;;;21.33;19.13;;;13.70;99.90;;;;;;5008608;28;20422;-88
2022/06/28 04:57:50;;;;;;;21.75;19.17;;;13.70;99.90;;;;;;4990485;28;20469;-88
2022/06/28 05:00:17;;;;;;;21.50;19.40;;;13.80;99.90;;;;;;5008021;28;20112;-88
2022/06/28 05:02:42;;;;;;;22.58;19.30;;;13.80;99.90;;;;;;5011750;28;20054;-88
2022/06/28 05:05:09;;;;;;;22.27;19.88;;;13.90;99.90;;;;;;5014221;28;20050;-88
2022/06/28 05:07:35;;;;;;;23.75;19.88;;;13.90;99.90;;;;;;5010303;28;20053;-87
2022/06/28 05:10:02;;;;;;;21.48;19.27;;;14.00;99.90;;;;;;5017295;28;20045;-88
2022/06/28 05:12:28;;;;;;;21.88;19.58;;;14.00;99.90;;;;;;5019123;28;20572;-88
2022/06/28 05:14:54;;;;;;;22.65;19.30;;;14.00;99.90;;;;;;4992329;28;20081;-87
2022/06/28 05:17:19;;;;;;;21.98;19.60;;;14.10;99.90;;;;;;5010451;28;20041;-87
2022/06/28 05:19:45;;;;;;;21.50;19.30;;;14.10;99.90;;;;;;4999334;28;20045;-86
2022/06/28 05:22:11;;;;;;;21.80;18.65;;;14.10;99.90;;;;;;5006262;28;20099;-87
2022/06/28 05:24:37;;;;;;;21.17;18.92;;;14.20;99.90;;;;;;5004707;28;20044;-88
2022/06/28 05:27:04;;;;;;;20.55;18.35;;;14.30;99.90;;;;;;4991824;28;20132;-87
2022/06/28 05:29:30;;;;;;;20.63;18.15;;;14.30;99.90;;;;;;5004796;28;20073;-88
2022/06/28 05:31:56;;;;;;;20.25;18.05;;;14.30;99.90;;;;;;5007200;28;20046;-86
2022/06/28 05:34:22;;;;;;;21.45;18.42;;;14.40;99.90;;;;;;4991510;28;20049;-87
2022/06/28 05:36:48;;;;;;;22.38;18.20;;;14.50;99.90;;;;;;4983474;28;20116;-87
2022/06/28 05:39:14;;;;;;;20.17;18.00;;;14.50;99.90;;;;;;5011992;28;20433;-86
2022/06/28 05:41:43;;;;;;;20.17;18.08;;;14.60;99.90;;;;;;5005571;28;20069;-86
2022/06/28 05:44:10;;;;;;;20.95;17.48;;;14.60;99.90;;;;;;4995901;28;20045;-86
2022/06/28 05:46:36;;;;;;;21.88;17.80;;;14.70;99.90;;;;;;4998596;28;20041;-86
2022/06/28 05:49:02;;;;;;;20.35;18.15;;;14.70;99.90;;;;;;4990767;28;20049;-86
2022/06/28 05:51:29;;;;;;;19.80;17.70;;;14.80;99.90;;;;;;4988210;28;20197;-87
2022/06/28 05:53:55;;;;;;;19.67;17.38;;;14.90;99.90;;;;;;5011075;28;20057;-88
2022/06/28 05:56:21;;;;;;;18.35;16.23;;;15.00;99.90;;;;;;5010314;28;20053;-90
2022/06/28 05:58:47;;;;;;;17.58;15.48;;;15.10;99.90;;;;;;5017388;28;20050;-90
2022/06/28 06:01:13;;;;;;;17.33;15.00;;;15.20;99.90;;;;;;5012584;28;20050;-89
2022/06/28 06:03:38;;;;;;;17.95;15.90;;;15.20;99.90;;;;;;5016630;28;20045;-90
2022/06/28 06:06:04;;;;;;;17.45;14.63;;;15.30;99.90;;;;;;4990631;28;20041;-89
2022/06/28 06:08:30;;;;;;;18.00;14.18;;;15.40;99.90;;;;;;5014489;28;20140;-90
2022/06/28 06:10:55;;;;;;;18.48;14.55;;;15.50;99.90;;;;;;4989910;28;20046;-89
2022/06/28 06:13:21;;;;;;;17.98;14.30;;;15.60;99.90;;;;;;4971125;28;20487;-90
2022/06/28 06:15:46;;;;;;;19.73;14.25;;;15.60;99.90;;;;;;4980008;28;20799;-93
2022/06/28 06:18:12;;;;;;;15.18;13.27;;;15.70;99.90;;;;;;5008710;28;20034;-93
2022/06/28 06:20:38;;;;;;;15.18;12.88;;;15.80;99.90;;;;;;4999774;28;20066;-94
2022/06/28 06:23:03;;;;;;;16.25;13.02;;;15.90;99.90;;;;;;4981172;28;20402;-91
2022/06/28 06:25:29;;;;;;;15.38;12.93;;;15.90;99.90;;;;;;4985146;28;20033;-92
2022/06/28 06:27:54;;;;;;;16.85;13.15;;;16.00;99.90;;;;;;4995891;28;20721;-92
2022/06/28 06:30:20;;;;;;;16.65;12.48;;;16.00;99.90;;;;;;4995740;28;20064;-93
2022/06/28 06:32:46;;;;;;;14.93;11.82;;;16.10;99.90;;;;;;4983830;28;20081;-92
2022/06/28 06:35:12;;;;;;;14.65;11.45;;;16.10;99.90;;;;;;5012254;28;20050;-94
2022/06/28 06:37:38;;;;;;;13.65;11.30;;;16.20;99.90;;;;;;5016192;28;20061;-95
2022/06/28 06:40:04;;;;;;;15.45;9.90;;;16.30;99.90;;;;;;5019810;28;20064;-92
2022/06/28 06:42:30;;;;;;;16.13;10.13;;;16.30;99.90;;;;;;5009304;28;20073;-92
2022/06/28 06:44:56;;;;;;;15.00;10.05;;;16.40;99.90;;;;;;5024803;28;20118;-94
2022/06/28 06:47:22;;;;;;;15.05;10.07;;;16.40;99.90;;;;;;5021241;28;20046;-90
2022/06/28 06:49:47;;;;;;;13.15;8.98;;;16.50;99.90;;;;;;5012587;28;20050;-93
2022/06/28 06:52:13;;;;;;;13.85;9.13;;;16.50;99.90;;;;;;5025294;28;20046;-92
2022/06/28 06:54:39;;;;;;;14.60;9.13;;;16.50;99.90;;;;;;5022911;28;20046;-95
2022/06/28 06:57:04;;;;;;;13.80;9.10;;;16.60;99.90;;;;;;5034368;28;20049;-96
2022/06/28 06:59:30;;;;;;;13.68;8.50;;;16.70;99.90;;;;;;5026697;28;20038;-96
2022/06/28 07:01:56;;;;;;;15.50;8.60;;;16.70;99.90;;;;;;5010561;28;20069;-96
2022/06/28 07:04:21;;;;;;;14.88;8.30;;;16.70;99.90;;;;;;5004783;28;20475;-96
2022/06/28 07:06:47;;;;;;;11.50;8.65;;;16.80;99.90;;;;;;5021698;28;20053;-94
2022/06/28 07:09:13;;;;;;;14.75;9.10;;;16.90;99.90;;;;;;5014226;28;20107;-96
2022/06/28 07:11:40;;;;;;;15.43;8.27;;;16.90;99.90;;;;;;4988789;28;20153;-96
2022/06/28 07:14:05;;;;;;;13.32;8.05;;;16.90;99.90;;;;;;5031442;28;20025;-96
2022/06/28 07:16:31;;;;;;;12.98;8.68;;;17.00;99.90;;;;;;5022794;28;20049;-95
2022/06/28 07:18:57;;;;;;;16.80;8.20;;;17.10;99.90;;;;;;4998669;28;20049;-94
2022/06/28 07:21:23;;;;;;;14.05;8.63;;;17.20;99.90;;;;;;5016434;28;20121;-93
2022/06/28 07:23:49;;;;;;;15.10;8.60;;;17.30;99.90;;;;;;5006992;28;20179;-92
2022/06/28 07:26:16;;;;;;;13.30;8.88;;;17.30;99.90;;;;;;5017706;28;20037;-94
2022/06/28 07:28:42;;;;;;;15.02;9.05;;;17.40;99.90;;;;;;5016113;28;20497;-93
2022/06/28 07:31:08;;;;;;;14.82;9.05;;;17.40;99.90;;;;;;5017564;28;20038;-93
2022/06/28 07:33:33;;;;;;;12.80;7.93;;;17.50;99.90;;;;;;5013044;28;20062;-93
2022/06/28 07:35:59;;;;;;;12.88;8.15;;;17.50;99.90;;;;;;5005497;28;20054;-94
2022/06/28 07:38:27;;;;;;;13.65;8.32;;;17.60;99.90;;;;;;5007775;28;20042;-94
2022/06/28 07:40:52;;;;;;;12.48;7.50;;;17.70;99.90;;;;;;5005113;28;20038;-93
2022/06/28 07:43:18;;;;;;;13.93;7.75;;;17.80;99.90;;;;;;5012942;28;20041;-92
2022/06/28 07:45:44;;;;;;;15.95;8.90;;;17.90;99.90;;;;;;5008436;28;20065;-93
2022/06/28 07:48:10;;;;;;;12.07;8.10;;;18.00;99.90;;;;;;4996157;28;20049;-92
2022/06/28 07:53:39;;;;;;;11.30;6.90;;;18.20;99.90;;;;;;4931397;28;20051;-91
2022/06/28 07:56:05;;;;;;;14.63;7.55;;;18.30;99.90;;;;;;4929534;28;20047;-91
2022/06/28 07:58:30;;;;;;;13.18;7.80;;;18.30;99.90;;;;;;4945705;28;20166;-91
2022/06/28 08:00:56;;;;;;;12.10;6.95;;;18.30;99.90;;;;;;4946452;28;20055;-91
2022/06/28 08:03:22;;;;;;;13.25;7.03;;;18.20;99.90;;;;;;4946463;28;20153;-92
2022/06/28 08:05:47;;;;;;;11.63;7.13;;;18.20;99.90;;;;;;4950737;28;20050;-91
2022/06/28 08:08:13;;;;;;;12.07;6.32;;;18.30;99.90;;;;;;4960162;28;20075;-92
2022/06/28 08:10:39;;;;;;;13.20;6.95;;;18.30;99.90;;;;;;4948865;28;20051;-91
2022/06/28 08:13:04;;;;;;;13.13;6.20;;;18.40;99.90;;;;;;4933028;28;20043;-91
2022/06/28 08:15:30;;;;;;;13.57;6.85;;;18.40;99.90;;;;;;4922756;28;20051;-91
2022/06/28 08:17:55;;;;;;;13.75;5.90;;;18.50;99.90;;;;;;4929555;28;20504;-91
2022/06/28 08:20:21;;;;;;;14.25;5.63;;;18.60;99.90;;;;;;4946425;28;20051;-89
2022/06/28 08:22:47;;;;;;;9.57;5.18;;;18.70;99.90;;;;;;4946131;28;20043;-89
2022/06/28 08:25:13;;;;;;;10.55;4.68;;;18.80;99.90;;;;;;4995500;28;20058;-90
2022/06/28 08:27:38;;;;;;;9.40;4.40;;;18.80;99.90;;;;;;5016307;28;20450;-90
2022/06/28 08:30:07;;;;;;;10.43;4.18;;;18.90;99.90;;;;;;5012015;28;20351;-88
2022/06/28 08:32:33;;;;;;;9.77;3.80;;;18.90;99.90;;;;;;5004416;28;20545;-89
2022/06/28 08:34:58;;;;;;;9.60;4.28;;;18.90;99.90;;;;;;5006816;28;20085;-90
2022/06/28 08:37:24;;;;;;;10.15;4.40;;;18.80;99.90;;;;;;4986413;28;20038;-89
2022/06/28 08:39:50;;;;;;;8.88;4.20;;;18.80;99.90;;;;;;4990939;28;20038;-88
2022/06/28 08:42:22;;;;;;;10.32;4.80;;;18.70;99.90;;;;;;5001022;28;20045;-87
2022/06/28 08:44:47;;;;;;;9.95;4.70;;;18.60;99.90;;;;;;5005170;28;20376;-88
2022/06/28 08:47:17;;;;;;;9.95;4.00;;;18.60;99.90;;;;;;5005765;28;20034;-87
2022/06/28 08:49:50;;;;;;;9.45;3.85;;;18.50;99.90;;;;;;5015189;28;20100;-86
2022/06/28 08:52:17;;;;;;;8.45;3.20;;;18.60;99.90;;;;;;4987273;28;20041;-85
2022/06/28 08:54:43;;;;;;;9.75;3.65;;;18.60;99.90;;;;;;4987151;28;20042;-86
2022/06/28 08:57:09;;;;;;;8.73;3.60;;;18.80;99.90;;;;;;4984845;28;20085;-86
2022/06/28 08:59:36;;;;;;;8.82;3.20;;;18.80;99.90;;;;;;4988558;28;20447;-86
2022/06/28 09:02:08;;;;;;;8.07;3.13;;;18.80;99.90;;;;;;5003970;28;20089;-86
2022/06/28 09:04:33;;;;;;;10.27;3.22;;;18.80;99.90;;;;;;5005939;28;20510;-87
2022/06/28 09:07:00;;;;;;;8.75;2.92;;;18.70;99.90;;;;;;5019153;28;20056;-86
2022/06/28 09:09:25;;;;;;;8.57;3.40;;;18.60;99.90;;;;;;4995449;28;20037;-87
2022/06/28 09:11:53;;;;;;;8.70;3.40;;;18.60;99.90;;;;;;4972570;28;20045;-86
2022/06/28 09:14:30;;;;;;;7.30;3.00;;;18.70;99.90;;;;;;5008753;28;20041;-87
2022/06/28 09:16:57;;;;;;;9.45;2.97;;;18.90;99.90;;;;;;5002029;28;20046;-87
2022/06/28 09:19:35;;;;;;;9.43;2.75;;;19.10;99.90;;;;;;4996553;28;20050;-86
2022/06/28 09:22:04;;;;;;;7.78;2.08;;;19.20;99.90;;;;;;4989753;28;20107;-86
2022/06/28 09:24:30;;;;;;;7.72;2.00;;;19.30;99.90;;;;;;4991215;28;20046;-86
2022/06/28 09:27:04;;;;;;;8.57;2.20;;;19.40;99.90;;;;;;4994304;28;20045;-86
2022/06/28 09:29:45;;;;;;;8.45;2.33;;;19.40;99.90;;;;;;4989641;28;20105;-86
2022/06/28 09:32:11;;;;;;;;;;;19.50;99.90;;;;;;4986899;28;20042;-86
2022/06/28 09:34:41;;;;;;;9.77;2.75;;;19.50;99.90;;;;;;5006145;28;19929;-87
2022/06/28 09:37:07;;;;;;;7.82;2.30;;;19.60;99.90;;;;;;4998626;28;20116;-87
2022/06/28 09:39:32;;;;;;;8.00;2.70;;;19.60;99.90;;;;;;4981468;28;20441;-87
2022/06/28 09:42:00;;;;;;;8.88;2.30;;;19.70;99.90;;;;;;5014591;28;20045;-88
2022/06/28 09:44:28;;;;;;;7.65;2.05;;;19.80;99.90;;;;;;5023425;28;20053;-87
2022/06/28 09:46:57;;;;;;;7.70;2.38;;;19.70;99.90;;;;;;5006654;28;20391;-91
2022/06/28 09:49:29;;;;;;;8.05;2.75;;;19.80;99.90;;;;;;5005361;28;20368;-88
2022/06/28 09:51:58;;;;;;;7.22;2.13;;;19.80;99.90;;;;;;5020325;28;20456;-89
2022/06/28 09:54:26;;;;;;;6.95;2.10;;;19.80;99.90;;;;;;5009559;28;20092;-89
2022/06/28 09:56:54;;;;;;;8.35;2.33;;;19.80;99.90;;;;;;4992266;28;20077;-88
2022/06/28 09:59:21;;;;;;;4.65;1.58;;;19.90;99.90;;;;;;5011611;28;20046;-90
2022/06/28 10:01:48;;;;;;;6.20;1.52;;;19.80;99.90;;;;;;4987147;28;20041;-89
2022/06/28 10:04:14;;;;;;;6.72;2.00;;;19.80;99.90;;;;;;4990259;28;20041;-89
2022/06/28 10:06:40;;;;;;;7.90;2.42;;;19.80;99.90;;;;;;5002917;28;20129;-90
2022/06/28 10:09:06;;;;;;;6.53;2.00;;;19.80;99.90;;;;;;4989520;28;20050;-93
2022/06/28 10:15:01;;;;;;;9.52;2.10;;;19.80;99.90;;;;;;4989350;28;20057;-89
2022/06/28 10:17:43;;;;;;;6.17;1.60;;;19.90;99.90;;;;;;4983035;28;20088;-91
2022/06/28 10:20:11;;;;;;;7.20;1.80;;;20.10;99.90;;;;;;4990363;28;20060;-90
2022/06/28 10:22:37;;;;;;;7.18;1.55;;;20.20;99.90;;;;;;4990953;28;20042;-92
2022/06/28 10:25:12;;;;;;;6.10;1.70;;;20.20;99.90;;;;;;5006853;28;20057;-92
2022/06/28 10:27:45;;;;;;;7.50;1.55;;;20.30;99.90;;;;;;4990783;28;20049;-91
2022/06/28 10:30:21;;;;;;;6.68;1.80;;;20.20;99.90;;;;;;4984591;28;20230;-91
2022/06/28 10:32:55;;;;;;;4.75;1.50;;;20.30;99.90;;;;;;5004058;28;20153;-91
2022/06/28 10:35:33;;;;;;;4.90;1.40;;;20.30;99.90;;;;;;5003128;28;20049;-94
2022/06/28 10:38:08;;;;;;;5.95;1.48;;;20.30;99.90;;;;;;5010675;28;20061;-93
2022/06/28 10:40:47;;;;;;;7.70;1.77;;;20.40;99.90;;;;;;5001190;28;20183;-93
2022/06/28 10:43:25;;;;;;;6.68;1.83;;;20.50;99.90;;;;;;4993101;28;20100;-92
2022/06/28 10:46:06;;;;;;;5.10;1.35;;;20.50;99.90;;;;;;4990949;28;20046;-93
2022/06/28 10:48:51;;;;;;;7.00;1.60;;;20.60;99.90;;;;;;5007303;28;20046;-91
2022/06/28 10:51:19;;;;;;;7.10;1.80;;;20.60;99.90;;;;;;5002108;28;20054;-94
2022/06/28 10:54:17;;;;;;;7.32;2.17;;;20.60;99.90;;;;;;4977388;28;20144;-91
2022/06/28 10:56:46;;;;;;;5.40;1.75;;;20.60;99.90;;;;;;5010669;28;20418;-88
2022/06/28 10:59:15;;;;;;;6.47;1.88;;;20.50;99.90;;;;;;4979636;28;20132;-88
2022/06/28 11:01:41;;;;;;;5.57;1.80;;;20.60;99.90;;;;;;5015178;28;20054;-89
2022/06/28 11:04:28;;;;;;;8.27;2.08;;;20.40;99.90;;;;;;5006077;28;20046;-88
2022/06/28 11:07:24;;;;;;;5.50;1.60;;;20.30;99.90;;;;;;5005336;28;20102;-95
2022/06/28 11:10:03;;;;;;;6.18;1.75;;;20.30;99.90;;;;;;4988267;28;20064;-88
2022/06/28 11:12:31;;;;;;;6.13;1.80;;;20.30;99.90;;;;;;4990095;28;20049;-90
2022/06/28 11:14:59;;;;;;;5.47;1.77;;;20.40;99.90;;;;;;4988706;28;20052;-89
2022/06/28 11:17:46;;;;;;;5.93;1.73;;;20.40;99.90;;;;;;5007422;28;20041;-89
2022/06/28 11:20:15;;;;;;;7.25;1.80;;;20.40;99.90;;;;;;5007952;28;20053;-93
2022/06/28 11:22:47;;;;;;;6.85;2.10;;;20.40;99.90;;;;;;4974098;28;20065;-89
2022/06/28 11:25:18;;;;;;;6.55;1.70;;;20.50;99.90;;;;;;4991341;28;20056;-91
2022/06/28 11:27:55;;;;;;;6.00;1.70;;;20.60;99.90;;;;;;5024629;28;20124;-88
2022/06/28 11:30:23;;;;;;;6.80;1.80;;;20.70;99.90;;;;;;5004408;28;20050;-87
2022/06/28 11:32:50;;;;;;;7.53;1.85;;;20.90;99.90;;;;;;5008902;28;20183;-89
2022/06/28 11:35:28;;;;;;;6.85;2.00;;;21.00;99.90;;;;;;5011091;28;20180;-88
2022/06/28 11:38:02;;;;;;;6.60;2.15;;;21.10;99.90;;;;;;5009329;28;20093;-87
2022/06/28 11:40:39;;;;;;;7.82;1.92;;;21.10;99.90;;;;;;4992774;28;20050;-88
2022/06/28 11:43:14;;;;;;;6.10;1.48;;;21.00;99.90;;;;;;5002946;28;20088;-90
2022/06/28 11:45:42;;;;;;;5.93;1.70;;;21.00;99.90;;;;;;5005642;28;20048;-92
2022/06/28 11:48:13;;;;;;;4.30;1.45;;;21.00;99.90;;;;;;5007005;28;20041;-89
2022/06/28 11:50:47;;;;;;;5.40;1.83;;;21.10;99.90;;;;;;5004037;28;20065;-90
2022/06/28 11:53:15;;;;;;;6.80;1.70;;;21.10;99.90;;;;;;5007566;28;20057;-92
2022/06/28 11:55:46;;;;;;;7.07;2.03;;;20.90;99.90;;;;;;5005242;28;20058;-89
2022/06/28 11:58:16;;;;;;;8.18;2.28;;;20.90;99.90;;;;;;5005959;28;20068;-89
2022/06/28 12:01:01;;;;;;;7.23;1.67;;;20.90;99.90;;;;;;5005357;28;20046;-88
2022/06/28 12:03:27;;;;;;;6.93;2.00;;;20.90;99.90;;;;;;5006275;28;20449;-90
2022/06/28 12:05:57;;;;;;;6.88;1.88;;;21.00;99.90;;;;;;5010400;28;20139;-88
2022/06/28 12:08:40;;;;;;;8.90;2.13;;;21.20;99.90;;;;;;5006425;28;20050;-88
2022/06/28 12:11:06;;;;;;;6.32;2.20;;;21.30;99.90;;;;;;4989265;28;20090;-89
2022/06/28 12:13:32;;;;;;;8.70;2.17;;;21.40;99.90;;;;;;5004321;28;20505;-88
2022/06/28 12:15:58;;;;;;;6.93;1.75;;;21.60;99.90;;;;;;5000230;28;20050;-89
2022/06/28 12:18:24;;;;;;;6.05;1.63;;;21.50;99.90;;;;;;5013595;28;20750;-91
2022/06/28 12:20:57;;;;;;;6.85;1.70;;;21.60;99.90;;;;;;4972104;28;20045;-91
2022/06/28 12:23:23;;;;;;;6.63;1.40;;;21.60;99.90;;;;;;5020610;28;20049;-89
2022/06/28 12:25:59;;;;;;;6.07;1.55;;;21.60;99.90;;;;;;5005060;28;20046;-89
2022/06/28 12:28:24;;;;;;;7.95;2.08;;;21.70;99.90;;;;;;5009487;28;20040;-90
2022/06/28 12:30:50;;;;;;;6.03;1.80;;;21.70;99.90;;;;;;5001250;28;20042;-91
2022/06/28 12:33:15;;;;;;;6.07;1.52;;;21.80;99.90;;;;;;5000937;28;20188;-89
2022/06/28 12:35:41;;;;;;;6.07;1.20;;;21.70;99.90;;;;;;5014730;28;20402;-89
2022/06/28 12:38:07;;;;;;;6.95;1.50;;;21.70;99.90;;;;;;5018782;28;20092;-89
2022/06/28 12:40:32;;;;;;;6.95;1.58;;;21.70;99.90;;;;;;5003399;28;20486;-89
2022/06/28 12:42:58;;;;;;;4.55;1.30;;;21.70;99.90;;;;;;5008837;28;20033;-90
2022/06/28 12:45:24;;;;;;;5.13;1.45;;;21.70;99.90;;;;;;5017469;28;20073;-90
2022/06/28 12:47:49;;;;;;;5.05;1.40;;;21.80;99.90;;;;;;5000930;28;20726;-90
2022/06/28 12:50:16;;;;;;;5.57;1.60;;;21.70;99.90;;;;;;5008629;28;20045;-88